Time,TemperatureF,DewpointF,PressureIn,WindDirection,WindDirectionDegrees,WindSpeedMPH,WindSpeedGustMPH,Humidity,HourlyPrecipIn,Conditions,Clouds,dailyrainin,SoftwareType,DateUTC
2013-01-17 00:02:00,35.9,20.0,30.19,NW,306,0.0,0.0,52,0.00,,,0.00,Wunderground v.1.15,2013-01-17 06:02:00,
2013-01-17 00:09:00,35.7,20.2,30.19,NW,306,0.0,0.0,53,0.00,,,0.00,Wunderground v.1.15,2013-01-17 06:09:00,
2013-01-17 00:14:00,35.4,19.9,30.19,NW,306,0.0,0.0,53,0.00,,,0.00,Wunderground v.1.15,2013-01-17 06:14:00,
2013-01-17 00:20:00,35.4,20.4,30.19,NW,306,0.0,0.0,54,0.00,,,0.00,Wunderground v.1.15,2013-01-17 06:20:00,
2013-01-17 00:26:00,35.4,21.2,30.19,NW,306,0.0,0.0,56,0.00,,,0.00,Wunderground v.1.15,2013-01-17 06:26:00,
2013-01-17 00:32:00,35.1,21.0,30.19,NW,306,0.0,0.0,56,0.00,,,0.00,Wunderground v.1.15,2013-01-17 06:32:00,
2013-01-17 00:39:00,34.8,21.1,30.20,NW,306,0.0,0.0,57,0.00,,,0.00,Wunderground v.1.15,2013-01-17 06:39:00,
2013-01-17 00:44:00,34.7,21.0,30.20,NW,306,0.0,0.0,57,0.00,,,0.00,Wunderground v.1.15,2013-01-17 06:44:00,
2013-01-17 00:50:00,34.7,21.0,30.20,NW,306,0.0,0.0,57,0.00,,,0.00,Wunderground v.1.15,2013-01-17 06:50:00,
2013-01-17 00:56:00,34.7,20.6,30.20,NW,306,0.0,0.0,56,0.00,,,0.00,Wunderground v.1.15,2013-01-17 06:56:00,
2013-01-17 01:02:00,34.6,20.5,30.20,NW,306,0.0,0.0,56,0.00,,,0.00,Wunderground v.1.15,2013-01-17 07:02:00,
2013-01-17 01:09:00,34.4,20.7,30.20,NW,306,0.0,0.0,57,0.00,,,0.00,Wunderground v.1.15,2013-01-17 07:09:00,
2013-01-17 01:14:00,34.4,20.7,30.20,NW,306,0.0,0.0,57,0.00,,,0.00,Wunderground v.1.15,2013-01-17 07:14:00,
2013-01-17 01:20:00,34.4,20.7,30.20,NW,306,0.0,0.0,57,0.00,,,0.00,Wunderground v.1.15,2013-01-17 07:20:00,
2013-01-17 01:26:00,34.4,20.7,30.20,NW,306,0.0,0.0,57,0.00,,,0.00,Wunderground v.1.15,2013-01-17 07:26:00,
2013-01-17 01:32:00,34.4,20.7,30.21,NW,306,0.0,0.0,57,0.00,,,0.00,Wunderground v.1.15,2013-01-17 07:32:00,
2013-01-17 01:38:00,34.3,20.6,30.21,NW,306,0.0,0.0,57,0.00,,,0.00,Wunderground v.1.15,2013-01-17 07:38:00,
2013-01-17 01:50:00,33.7,20.5,30.22,NW,306,0.0,0.0,58,0.00,,,0.00,Wunderground v.1.15,2013-01-17 07:50:00,
2013-01-17 01:56:00,33.5,20.3,30.22,NW,306,0.0,0.0,58,0.00,,,0.00,Wunderground v.1.15,2013-01-17 07:56:00,
2013-01-17 02:02:00,33.4,20.2,30.22,NW,306,0.0,0.0,58,0.00,,,0.00,Wunderground v.1.15,2013-01-17 08:02:00,
2013-01-17 02:08:00,33.2,20.0,30.23,NW,306,0.0,0.0,58,0.00,,,0.00,Wunderground v.1.15,2013-01-17 08:08:00,
2013-01-17 02:14:00,33.0,20.2,30.23,NW,306,0.0,0.0,59,0.00,,,0.00,Wunderground v.1.15,2013-01-17 08:14:00,
2013-01-17 02:20:00,33.0,20.6,30.23,NW,306,0.0,0.0,60,0.00,,,0.00,Wunderground v.1.15,2013-01-17 08:20:00,
2013-01-17 02:26:00,33.0,20.6,30.23,NW,306,0.0,0.0,60,0.00,,,0.00,Wunderground v.1.15,2013-01-17 08:26:00,
2013-01-17 02:32:00,32.9,20.9,30.22,NW,306,0.0,0.0,61,0.00,,,0.00,Wunderground v.1.15,2013-01-17 08:32:00,
2013-01-17 02:39:00,32.7,21.1,30.23,NW,306,0.0,0.0,62,0.00,,,0.00,Wunderground v.1.15,2013-01-17 08:39:00,
2013-01-17 02:44:00,32.6,21.0,30.24,NW,306,0.0,0.0,62,0.00,,,0.00,Wunderground v.1.15,2013-01-17 08:44:00,
2013-01-17 02:50:00,32.3,21.1,30.24,NW,306,0.0,0.0,63,0.00,,,0.00,Wunderground v.1.15,2013-01-17 08:50:00,
2013-01-17 02:56:00,32.2,21.4,30.24,NW,306,0.0,0.0,64,0.00,,,0.00,Wunderground v.1.15,2013-01-17 08:56:00,
2013-01-17 03:02:00,32.5,21.7,30.24,NW,306,0.0,0.0,64,0.00,,,0.00,Wunderground v.1.15,2013-01-17 09:02:00,
2013-01-17 03:08:00,32.5,21.7,30.24,NW,306,0.0,0.0,64,0.00,,,0.00,Wunderground v.1.15,2013-01-17 09:08:00,
2013-01-17 03:14:00,32.5,21.7,30.24,NW,306,0.0,0.0,64,0.00,,,0.00,Wunderground v.1.15,2013-01-17 09:14:00,
2013-01-17 03:20:00,32.4,21.9,30.24,NW,306,0.0,0.0,65,0.00,,,0.00,Wunderground v.1.15,2013-01-17 09:20:00,
2013-01-17 03:26:00,32.2,22.1,30.25,NW,306,0.0,0.0,66,0.00,,,0.00,Wunderground v.1.15,2013-01-17 09:26:00,
2013-01-17 03:32:00,32.0,21.9,30.26,NW,306,0.0,0.0,66,0.00,,,0.00,Wunderground v.1.15,2013-01-17 09:32:00,
2013-01-17 03:38:00,32.0,22.3,30.26,NW,306,0.0,0.0,67,0.00,,,0.00,Wunderground v.1.15,2013-01-17 09:38:00,
2013-01-17 03:44:00,32.1,23.1,30.26,NW,306,0.0,0.0,69,0.00,,,0.00,Wunderground v.1.15,2013-01-17 09:44:00,
2013-01-17 03:50:00,32.8,24.1,30.26,NW,306,0.0,0.0,70,0.00,,,0.00,Wunderground v.1.15,2013-01-17 09:50:00,
2013-01-17 03:56:00,33.5,24.8,30.26,NW,307,0.0,0.0,70,0.00,,,0.00,Wunderground v.1.15,2013-01-17 09:56:00,
2013-01-17 04:02:00,33.9,25.1,30.26,NW,307,0.0,0.0,70,0.00,,,0.00,Wunderground v.1.15,2013-01-17 10:02:00,
2013-01-17 04:09:00,34.3,25.9,30.27,NW,313,0.0,0.0,71,0.00,,,0.00,Wunderground v.1.15,2013-01-17 10:09:00,
2013-01-17 04:14:00,34.4,26.0,30.27,NW,326,0.0,2.0,71,0.00,,,0.00,Wunderground v.1.15,2013-01-17 10:14:00,
2013-01-17 04:20:00,35.0,26.9,30.27,NNE,19,2.0,2.0,72,0.00,,,0.00,Wunderground v.1.15,2013-01-17 10:20:00,
2013-01-17 04:26:00,35.9,27.7,30.27,NNE,14,3.0,3.0,72,0.00,,,0.00,Wunderground v.1.15,2013-01-17 10:26:00,
2013-01-17 04:32:00,36.6,28.1,30.28,NNE,22,3.0,5.0,71,0.00,,,0.00,Wunderground v.1.15,2013-01-17 10:32:00,
2013-01-17 04:39:00,37.2,28.3,30.28,NNE,20,5.0,6.0,70,0.00,,,0.00,Wunderground v.1.15,2013-01-17 10:39:00,
2013-01-17 04:44:00,37.3,28.4,30.28,NNE,30,6.0,6.0,70,0.00,,,0.00,Wunderground v.1.15,2013-01-17 10:44:00,
2013-01-17 04:50:00,37.3,28.4,30.29,NNW,348,5.0,5.0,70,0.00,,,0.00,Wunderground v.1.15,2013-01-17 10:50:00,
2013-01-17 04:56:00,37.2,28.7,30.29,North,11,4.0,5.0,71,0.00,,,0.00,Wunderground v.1.15,2013-01-17 10:56:00,
2013-01-17 05:02:00,37.2,28.7,30.29,NNE,25,4.0,4.0,71,0.00,,,0.00,Wunderground v.1.15,2013-01-17 11:02:00,
2013-01-17 05:10:00,37.5,29.3,30.29,NNE,32,5.0,10.0,72,0.00,,,0.00,Wunderground v.1.15,2013-01-17 11:10:00,
2013-01-17 05:16:00,37.5,29.3,30.30,NE,42,6.0,10.0,72,0.00,,,0.00,Wunderground v.1.15,2013-01-17 11:16:00,
2013-01-17 05:22:00,37.6,29.4,30.30,NW,314,7.0,7.0,72,0.00,,,0.00,Wunderground v.1.15,2013-01-17 11:22:00,
2013-01-17 05:29:00,37.6,29.4,30.31,NNE,15,7.0,10.0,72,0.00,,,0.00,Wunderground v.1.15,2013-01-17 11:29:00,
2013-01-17 05:34:00,37.4,29.2,30.31,NNE,26,6.0,8.0,72,0.00,,,0.00,Wunderground v.1.15,2013-01-17 11:34:00,
2013-01-17 05:44:00,37.3,29.4,30.31,NNE,33,4.0,5.0,73,0.00,,,0.00,Wunderground v.1.15,2013-01-17 11:44:00,
2013-01-17 05:50:00,37.2,29.3,30.31,NE,46,5.0,8.0,73,0.00,,,0.00,Wunderground v.1.15,2013-01-17 11:50:00,
2013-01-17 05:56:00,37.1,29.2,30.32,North,11,5.0,5.0,73,0.00,,,0.00,Wunderground v.1.15,2013-01-17 11:56:00,
2013-01-17 06:02:00,36.9,29.4,30.32,North,9,5.0,5.0,74,0.00,,,0.00,Wunderground v.1.15,2013-01-17 12:02:00,
2013-01-17 06:09:00,36.8,29.3,30.33,NNE,23,4.0,7.0,74,0.00,,,0.00,Wunderground v.1.15,2013-01-17 12:09:00,
2013-01-17 06:14:00,36.9,29.4,30.33,NNE,17,5.0,11.0,74,0.00,,,0.00,Wunderground v.1.15,2013-01-17 12:14:00,
2013-01-17 06:20:00,37.0,29.5,30.33,NNE,14,6.0,6.0,74,0.00,,,0.00,Wunderground v.1.15,2013-01-17 12:20:00,
2013-01-17 06:26:00,37.0,29.5,30.33,NNE,18,5.0,11.0,74,0.00,,,0.00,Wunderground v.1.15,2013-01-17 12:26:00,
2013-01-17 06:32:00,37.1,29.6,30.33,NNE,21,6.0,6.0,74,0.00,,,0.00,Wunderground v.1.15,2013-01-17 12:32:00,
2013-01-17 06:39:00,37.1,29.6,30.33,NE,40,6.0,7.0,74,0.00,,,0.00,Wunderground v.1.15,2013-01-17 12:39:00,
2013-01-17 06:44:00,37.1,29.9,30.33,NE,34,6.0,7.0,75,0.00,,,0.00,Wunderground v.1.15,2013-01-17 12:44:00,
2013-01-17 06:50:00,37.0,29.5,30.34,NNE,17,5.0,5.0,74,0.00,,,0.00,Wunderground v.1.15,2013-01-17 12:50:00,
2013-01-17 06:56:00,36.9,29.7,30.34,NNE,22,5.0,6.0,75,0.00,,,0.00,Wunderground v.1.15,2013-01-17 12:56:00,
2013-01-17 07:02:00,37.0,29.8,30.34,NNE,21,5.0,5.0,75,0.00,,,0.00,Wunderground v.1.15,2013-01-17 13:02:00,
2013-01-17 07:09:00,37.0,29.8,30.35,NNE,22,4.0,6.0,75,0.00,,,0.00,Wunderground v.1.15,2013-01-17 13:09:00,
2013-01-17 07:14:00,37.0,29.8,30.35,NNE,22,4.0,5.0,75,0.00,,,0.00,Wunderground v.1.15,2013-01-17 13:14:00,
2013-01-17 07:20:00,36.9,29.7,30.35,NNE,13,4.0,4.0,75,0.00,,,0.00,Wunderground v.1.15,2013-01-17 13:20:00,
2013-01-17 07:26:00,37.0,29.8,30.36,North,11,4.0,4.0,75,0.00,,,0.00,Wunderground v.1.15,2013-01-17 13:26:00,
2013-01-17 07:32:00,37.0,30.1,30.36,North,360,4.0,4.0,76,0.00,,,0.00,Wunderground v.1.15,2013-01-17 13:32:00,
2013-01-17 07:39:00,37.0,30.1,30.37,North,9,3.0,6.0,76,0.00,,,0.00,Wunderground v.1.15,2013-01-17 13:39:00,
2013-01-17 07:44:00,37.0,29.8,30.36,NNE,21,4.0,5.0,75,0.00,,,0.00,Wunderground v.1.15,2013-01-17 13:44:00,
2013-01-17 07:50:00,37.0,30.1,30.37,NNE,17,3.0,4.0,76,0.00,,,0.00,Wunderground v.1.15,2013-01-17 13:50:00,
2013-01-17 07:56:00,37.3,30.4,30.37,NNE,13,5.0,7.0,76,0.00,,,0.00,Wunderground v.1.15,2013-01-17 13:56:00,
2013-01-17 08:02:00,37.4,30.2,30.37,NNE,19,5.0,10.0,75,0.00,,,0.00,Wunderground v.1.15,2013-01-17 14:02:00,
2013-01-17 08:09:00,37.6,30.4,30.37,NNE,27,6.0,10.0,75,0.00,,,0.00,Wunderground v.1.15,2013-01-17 14:09:00,
2013-01-17 08:14:00,37.8,30.6,30.37,NNE,31,6.0,11.0,75,0.00,,,0.00,Wunderground v.1.15,2013-01-17 14:14:00,
2013-01-17 08:20:00,37.9,30.4,30.37,NNE,15,6.0,6.0,74,0.00,,,0.00,Wunderground v.1.15,2013-01-17 14:20:00,
2013-01-17 08:26:00,38.0,30.4,30.38,NE,36,6.0,10.0,74,0.00,,,0.00,Wunderground v.1.15,2013-01-17 14:26:00,
2013-01-17 08:32:00,38.1,30.5,30.38,NNE,25,6.0,6.0,74,0.00,,,0.00,Wunderground v.1.15,2013-01-17 14:32:00,
2013-01-17 08:39:00,38.2,30.3,30.38,NNE,32,5.0,10.0,73,0.00,,,0.00,Wunderground v.1.15,2013-01-17 14:39:00,
2013-01-17 08:44:00,38.4,30.5,30.39,North,355,6.0,10.0,73,0.00,,,0.00,Wunderground v.1.15,2013-01-17 14:44:00,
2013-01-17 08:50:00,38.6,30.7,30.39,NNW,344,6.0,8.0,73,0.00,,,0.00,Wunderground v.1.15,2013-01-17 14:50:00,
2013-01-17 08:56:00,38.9,30.6,30.39,North,9,6.0,12.0,72,0.00,,,0.00,Wunderground v.1.15,2013-01-17 14:56:00,
2013-01-17 09:02:00,39.1,30.8,30.39,NNE,17,6.0,9.0,72,0.00,,,0.00,Wunderground v.1.15,2013-01-17 15:02:00,
2013-01-17 09:09:00,39.3,30.7,30.40,NNE,21,6.0,9.0,71,0.00,,,0.00,Wunderground v.1.15,2013-01-17 15:09:00,
2013-01-17 09:14:00,39.5,30.9,30.40,North,5,6.0,10.0,71,0.00,,,0.00,Wunderground v.1.15,2013-01-17 15:14:00,
2013-01-17 09:20:00,39.8,31.2,30.41,NE,36,6.0,6.0,71,0.00,,,0.00,Wunderground v.1.15,2013-01-17 15:20:00,
2013-01-17 09:26:00,40.0,31.4,30.41,North,11,6.0,11.0,71,0.00,,,0.00,Wunderground v.1.15,2013-01-17 15:26:00,
2013-01-17 09:32:00,40.4,31.4,30.41,NE,51,5.0,6.0,70,0.00,,,0.00,Wunderground v.1.15,2013-01-17 15:32:00,
2013-01-17 09:39:00,40.9,31.5,30.42,NNE,15,3.0,8.0,69,0.00,,,0.00,Wunderground v.1.15,2013-01-17 15:39:00,
2013-01-17 09:44:00,41.1,31.7,30.42,NNE,17,4.0,10.0,69,0.00,,,0.00,Wunderground v.1.15,2013-01-17 15:44:00,
2013-01-17 09:50:00,41.3,31.9,30.43,NNE,18,4.0,4.0,69,0.00,,,0.00,Wunderground v.1.15,2013-01-17 15:50:00,
2013-01-17 09:56:00,41.6,31.8,30.43,NNE,22,4.0,9.0,68,0.00,,,0.00,Wunderground v.1.15,2013-01-17 15:56:00,
2013-01-17 10:02:00,41.9,32.1,30.43,ENE,57,5.0,5.0,68,0.00,,,0.00,Wunderground v.1.15,2013-01-17 16:02:00,
2013-01-17 10:09:00,42.3,32.1,30.44,NNE,30,4.0,6.0,67,0.00,,,0.00,Wunderground v.1.15,2013-01-17 16:09:00,
2013-01-17 10:14:00,42.9,32.3,30.43,ENE,63,2.0,6.0,66,0.00,,,0.00,Wunderground v.1.15,2013-01-17 16:14:00,
2013-01-17 10:20:00,43.2,32.2,30.43,North,9,3.0,4.0,65,0.00,,,0.00,Wunderground v.1.15,2013-01-17 16:20:00,
2013-01-17 10:26:00,43.5,32.5,30.44,North,5,3.0,4.0,65,0.00,,,0.00,Wunderground v.1.15,2013-01-17 16:26:00,
2013-01-17 10:32:00,44.1,32.7,30.44,NNE,26,3.0,4.0,64,0.00,,,0.00,Wunderground v.1.15,2013-01-17 16:32:00,
2013-01-17 10:39:00,44.6,32.8,30.43,NE,38,2.0,4.0,63,0.00,,,0.00,Wunderground v.1.15,2013-01-17 16:39:00,
2013-01-17 10:44:00,45.0,32.8,30.43,NE,34,2.0,11.0,62,0.00,,,0.00,Wunderground v.1.15,2013-01-17 16:44:00,
2013-01-17 10:50:00,45.2,32.9,30.44,ENE,65,3.0,6.0,62,0.00,,,0.00,Wunderground v.1.15,2013-01-17 16:50:00,
2013-01-17 10:56:00,45.3,32.6,30.43,NE,49,4.0,9.0,61,0.00,,,0.00,Wunderground v.1.15,2013-01-17 16:56:00,
2013-01-17 11:02:00,45.6,32.5,30.43,NNE,19,5.0,10.0,60,0.00,,,0.00,Wunderground v.1.15,2013-01-17 17:02:00,
2013-01-17 11:09:00,45.4,32.3,30.43,NNE,17,7.0,10.0,60,0.00,,,0.00,Wunderground v.1.15,2013-01-17 17:09:00,
2013-01-17 11:14:00,45.7,32.6,30.43,NNE,15,7.0,9.0,60,0.00,,,0.00,Wunderground v.1.15,2013-01-17 17:14:00,
2013-01-17 11:20:00,45.9,32.4,30.43,NNE,16,7.0,7.0,59,0.00,,,0.00,Wunderground v.1.15,2013-01-17 17:20:00,
2013-01-17 11:26:00,46.3,31.4,30.43,NNE,22,7.0,15.0,56,0.00,,,0.00,Wunderground v.1.15,2013-01-17 17:26:00,
2013-01-17 11:32:00,46.5,31.6,30.43,NNW,332,8.0,8.0,56,0.00,,,0.00,Wunderground v.1.15,2013-01-17 17:32:00,
2013-01-17 11:39:00,47.0,32.1,30.43,NE,38,6.0,9.0,56,0.00,,,0.00,Wunderground v.1.15,2013-01-17 17:39:00,
2013-01-17 11:44:00,47.6,32.2,30.43,NE,51,4.0,6.0,55,0.00,,,0.00,Wunderground v.1.15,2013-01-17 17:44:00,
2013-01-17 11:50:00,47.8,31.9,30.43,ENE,63,4.0,4.0,54,0.00,,,0.00,Wunderground v.1.15,2013-01-17 17:50:00,
2013-01-17 11:56:00,48.0,31.7,30.42,NE,36,4.0,9.0,53,0.00,,,0.00,Wunderground v.1.15,2013-01-17 17:56:00,
2013-01-17 12:02:00,48.1,31.8,30.42,NNE,27,5.0,5.0,53,0.00,,,0.00,Wunderground v.1.15,2013-01-17 18:02:00,
2013-01-17 12:09:00,48.2,31.4,30.42,NNE,32,5.0,9.0,52,0.00,,,0.00,Wunderground v.1.15,2013-01-17 18:09:00,
2013-01-17 12:14:00,48.1,31.3,30.42,NE,46,6.0,9.0,52,0.00,,,0.00,Wunderground v.1.15,2013-01-17 18:14:00,
2013-01-17 12:20:00,48.8,31.5,30.41,NNE,15,5.0,5.0,51,0.00,,,0.00,Wunderground v.1.15,2013-01-17 18:20:00,
2013-01-17 12:26:00,49.1,31.7,30.41,NE,47,4.0,9.0,51,0.00,,,0.00,Wunderground v.1.15,2013-01-17 18:26:00,
2013-01-17 12:32:00,49.6,31.7,30.41,NNE,32,3.0,4.0,50,0.00,,,0.00,Wunderground v.1.15,2013-01-17 18:32:00,
2013-01-17 12:38:00,49.5,31.6,30.41,North,355,4.0,6.0,50,0.00,,,0.00,Wunderground v.1.15,2013-01-17 18:38:00,
2013-01-17 12:44:00,49.4,31.5,30.41,NNE,12,5.0,12.0,50,0.00,,,0.00,Wunderground v.1.15,2013-01-17 18:44:00,
2013-01-17 12:50:00,49.6,31.7,30.41,North,350,5.0,10.0,50,0.00,,,0.00,Wunderground v.1.15,2013-01-17 18:50:00,
2013-01-17 12:56:00,49.7,31.3,30.41,NE,36,6.0,10.0,49,0.00,,,0.00,Wunderground v.1.15,2013-01-17 18:56:00,
2013-01-17 13:02:00,49.9,31.5,30.41,NE,37,6.0,7.0,49,0.00,,,0.00,Wunderground v.1.15,2013-01-17 19:02:00,
2013-01-17 13:09:00,50.0,31.1,30.41,NNE,20,5.0,11.0,48,0.00,,,0.00,Wunderground v.1.15,2013-01-17 19:09:00,
2013-01-17 13:14:00,50.4,31.4,30.41,NNE,26,6.0,8.0,48,0.00,,,0.00,Wunderground v.1.15,2013-01-17 19:14:00,
2013-01-17 13:20:00,50.6,31.1,30.41,NE,47,5.0,5.0,47,0.00,,,0.00,Wunderground v.1.15,2013-01-17 19:20:00,
2013-01-17 13:26:00,51.1,31.6,30.41,NNE,30,3.0,6.0,47,0.00,,,0.00,Wunderground v.1.15,2013-01-17 19:26:00,
2013-01-17 13:32:00,51.2,31.1,30.40,ENE,57,5.0,10.0,46,0.00,,,0.00,Wunderground v.1.15,2013-01-17 19:32:00,
2013-01-17 13:39:00,50.9,30.8,30.40,NNE,22,8.0,12.0,46,0.00,,,0.00,Wunderground v.1.15,2013-01-17 19:39:00,
2013-01-17 13:46:00,51.3,31.2,30.40,ENE,63,6.0,7.0,46,0.00,,,0.00,Wunderground v.1.15,2013-01-17 19:46:00,
2013-01-17 13:52:00,51.7,31.0,30.40,NE,46,5.0,5.0,45,0.00,,,0.00,Wunderground v.1.15,2013-01-17 19:52:00,
2013-01-17 13:59:00,51.8,31.1,30.40,North,5,6.0,6.0,45,0.00,,,0.00,Wunderground v.1.15,2013-01-17 19:59:00,
2013-01-17 14:04:00,51.8,31.1,30.39,NNE,30,6.0,7.0,45,0.00,,,0.00,Wunderground v.1.15,2013-01-17 20:04:00,
2013-01-17 14:10:00,51.7,31.0,30.39,North,360,6.0,7.0,45,0.00,,,0.00,Wunderground v.1.15,2013-01-17 20:10:00,
2013-01-17 14:16:00,51.8,31.1,30.39,NE,40,6.0,10.0,45,0.00,,,0.00,Wunderground v.1.15,2013-01-17 20:16:00,
2013-01-17 14:22:00,52.2,30.9,30.39,NNE,24,5.0,12.0,44,0.00,,,0.00,Wunderground v.1.15,2013-01-17 20:22:00,
2013-01-17 14:28:00,52.2,30.9,30.39,NNE,20,6.0,12.0,44,0.00,,,0.00,Wunderground v.1.15,2013-01-17 20:28:00,
2013-01-17 14:34:00,52.1,30.3,30.39,NNW,344,7.0,12.0,43,0.00,,,0.00,Wunderground v.1.15,2013-01-17 20:34:00,
2013-01-17 14:40:00,52.4,31.1,30.39,NNE,13,5.0,5.0,44,0.00,,,0.00,Wunderground v.1.15,2013-01-17 20:40:00,
2013-01-17 14:46:00,52.9,31.0,30.39,NNE,20,3.0,12.0,43,0.00,,,0.00,Wunderground v.1.15,2013-01-17 20:46:00,
2013-01-17 14:52:00,52.9,30.4,30.39,NE,48,5.0,7.0,42,0.00,,,0.00,Wunderground v.1.15,2013-01-17 20:52:00,
2013-01-17 14:59:00,52.8,30.3,30.39,NNE,32,4.0,7.0,42,0.00,,,0.00,Wunderground v.1.15,2013-01-17 20:59:00,
2013-01-17 15:04:00,52.8,30.3,30.39,East,80,5.0,7.0,42,0.00,,,0.00,Wunderground v.1.15,2013-01-17 21:04:00,
2013-01-17 15:10:00,52.9,30.4,30.39,North,10,4.0,4.0,42,0.00,,,0.00,Wunderground v.1.15,2013-01-17 21:10:00,
2013-01-17 15:16:00,53.2,30.7,30.39,ENE,57,3.0,6.0,42,0.00,,,0.00,Wunderground v.1.15,2013-01-17 21:16:00,
2013-01-17 15:22:00,53.5,31.0,30.39,ENE,60,3.0,3.0,42,0.00,,,0.00,Wunderground v.1.15,2013-01-17 21:22:00,
2013-01-17 15:29:00,53.6,30.4,30.39,ENE,60,2.0,3.0,41,0.00,,,0.00,Wunderground v.1.15,2013-01-17 21:29:00,
2013-01-17 15:34:00,53.5,31.0,30.39,NNE,26,2.0,5.0,42,0.00,,,0.00,Wunderground v.1.15,2013-01-17 21:34:00,
2013-01-17 15:40:00,53.3,30.8,30.40,NNE,28,3.0,3.0,42,0.00,,,0.00,Wunderground v.1.15,2013-01-17 21:40:00,
2013-01-17 15:46:00,53.1,30.6,30.40,NE,48,3.0,5.0,42,0.00,,,0.00,Wunderground v.1.15,2013-01-17 21:46:00,
2013-01-17 15:52:00,53.1,30.6,30.39,NNE,27,3.0,4.0,42,0.00,,,0.00,Wunderground v.1.15,2013-01-17 21:52:00,
2013-01-17 15:59:00,52.9,30.4,30.40,NE,45,3.0,8.0,42,0.00,,,0.00,Wunderground v.1.15,2013-01-17 21:59:00,
2013-01-17 16:04:00,52.8,30.3,30.40,NE,54,3.0,3.0,42,0.00,,,0.00,Wunderground v.1.15,2013-01-17 22:04:00,
2013-01-17 16:10:00,52.9,30.4,30.40,East,84,3.0,3.0,42,0.00,,,0.00,Wunderground v.1.15,2013-01-17 22:10:00,
2013-01-17 16:16:00,52.8,30.3,30.40,NNE,32,3.0,8.0,42,0.00,,,0.00,Wunderground v.1.15,2013-01-17 22:16:00,
2013-01-17 16:22:00,52.7,30.2,30.40,NNE,30,3.0,5.0,42,0.00,,,0.00,Wunderground v.1.15,2013-01-17 22:22:00,
2013-01-17 16:29:00,52.6,30.1,30.40,NE,42,3.0,5.0,42,0.00,,,0.00,Wunderground v.1.15,2013-01-17 22:29:00,
2013-01-17 16:34:00,52.5,30.0,30.40,ENE,65,3.0,6.0,42,0.00,,,0.00,Wunderground v.1.15,2013-01-17 22:34:00,
2013-01-17 16:40:00,52.3,30.4,30.40,NE,46,3.0,3.0,43,0.00,,,0.00,Wunderground v.1.15,2013-01-17 22:40:00,
2013-01-17 16:46:00,52.2,30.4,30.41,ENE,78,2.0,3.0,43,0.00,,,0.00,Wunderground v.1.15,2013-01-17 22:46:00,
2013-01-17 16:52:00,52.2,30.4,30.41,NNE,17,1.0,2.0,43,0.00,,,0.00,Wunderground v.1.15,2013-01-17 22:52:00,
2013-01-17 16:58:00,52.0,30.2,30.41,NE,44,2.0,4.0,43,0.00,,,0.00,Wunderground v.1.15,2013-01-17 22:58:00,
2013-01-17 17:04:00,51.9,30.6,30.41,NE,44,2.0,2.0,44,0.00,,,0.00,Wunderground v.1.15,2013-01-17 23:04:00,
2013-01-17 17:10:00,51.7,30.5,30.41,NE,44,0.0,2.0,44,0.00,,,0.00,Wunderground v.1.15,2013-01-17 23:10:00,
2013-01-17 17:16:00,51.3,30.1,30.41,NE,34,1.0,2.0,44,0.00,,,0.00,Wunderground v.1.15,2013-01-17 23:16:00,
2013-01-17 17:22:00,50.9,30.3,30.41,NE,34,2.0,2.0,45,0.00,,,0.00,Wunderground v.1.15,2013-01-17 23:22:00,
2013-01-17 17:29:00,50.6,30.0,30.41,NE,34,0.0,2.0,45,0.00,,,0.00,Wunderground v.1.15,2013-01-17 23:29:00,
2013-01-17 17:34:00,50.4,29.8,30.41,NE,35,0.0,2.0,45,0.00,,,0.00,Wunderground v.1.15,2013-01-17 23:34:00,
2013-01-17 17:40:00,50.0,30.0,30.41,NE,34,0.0,0.0,46,0.00,,,0.00,Wunderground v.1.15,2013-01-17 23:40:00,
2013-01-17 17:46:00,49.6,30.2,30.42,NE,34,0.0,0.0,47,0.00,,,0.00,Wunderground v.1.15,2013-01-17 23:46:00,
2013-01-17 17:52:00,49.2,29.8,30.42,NE,35,0.0,0.0,47,0.00,,,0.00,Wunderground v.1.15,2013-01-17 23:52:00,
2013-01-17 17:58:00,49.0,30.1,30.42,NE,34,0.0,1.0,48,0.00,,,0.00,Wunderground v.1.15,2013-01-17 23:58:00,
2013-01-17 18:10:00,48.6,29.8,30.42,NE,34,0.0,0.0,48,0.00,,,0.00,Wunderground v.1.15,2013-01-18 00:10:00,
2013-01-17 18:16:00,48.2,29.9,30.43,NE,35,0.0,0.0,49,0.00,,,0.00,Wunderground v.1.15,2013-01-18 00:16:00,
2013-01-17 18:22:00,47.9,29.6,30.42,NE,34,0.0,0.0,49,0.00,,,0.00,Wunderground v.1.15,2013-01-18 00:22:00,
2013-01-17 18:29:00,47.6,29.9,30.42,NE,35,0.0,0.0,50,0.00,,,0.00,Wunderground v.1.15,2013-01-18 00:29:00,
2013-01-17 18:34:00,47.4,29.7,30.42,NE,35,0.0,0.0,50,0.00,,,0.00,Wunderground v.1.15,2013-01-18 00:34:00,
2013-01-17 18:40:00,47.3,30.1,30.42,NE,34,0.0,0.0,51,0.00,,,0.00,Wunderground v.1.15,2013-01-18 00:40:00,
2013-01-17 18:46:00,47.0,29.8,30.42,NE,34,0.0,0.0,51,0.00,,,0.00,Wunderground v.1.15,2013-01-18 00:46:00,
2013-01-17 18:52:00,46.8,29.6,30.42,NE,35,0.0,0.0,51,0.00,,,0.00,Wunderground v.1.15,2013-01-18 00:52:00,
2013-01-17 18:59:00,46.6,29.9,30.43,NE,35,0.0,0.0,52,0.00,,,0.00,Wunderground v.1.15,2013-01-18 00:59:00,
2013-01-17 19:04:00,46.4,29.7,30.43,NE,34,0.0,0.0,52,0.00,,,0.00,Wunderground v.1.15,2013-01-18 01:04:00,
2013-01-17 19:10:00,46.2,29.5,30.43,NE,35,0.0,0.0,52,0.00,,,0.00,Wunderground v.1.15,2013-01-18 01:10:00,
2013-01-17 19:16:00,46.1,29.9,30.43,NE,35,0.0,0.0,53,0.00,,,0.00,Wunderground v.1.15,2013-01-18 01:16:00,
2013-01-17 19:24:00,45.7,30.0,30.43,NE,35,0.0,0.0,54,0.00,,,0.00,Wunderground v.1.15,2013-01-18 01:24:00,
2013-01-17 19:30:00,45.6,29.9,30.43,NE,34,0.0,0.0,54,0.00,,,0.00,Wunderground v.1.15,2013-01-18 01:30:00,
2013-01-17 19:36:00,45.5,29.8,30.44,NE,34,0.0,0.0,54,0.00,,,0.00,Wunderground v.1.15,2013-01-18 01:36:00,
2013-01-17 19:42:00,45.3,30.1,30.43,NE,35,0.0,0.0,55,0.00,,,0.00,Wunderground v.1.15,2013-01-18 01:42:00,
2013-01-17 19:49:00,45.1,29.9,30.44,NE,34,0.0,0.0,55,0.00,,,0.00,Wunderground v.1.15,2013-01-18 01:49:00,
2013-01-17 19:54:00,45.0,29.8,30.44,NE,35,0.0,0.0,55,0.00,,,0.00,Wunderground v.1.15,2013-01-18 01:54:00,
2013-01-17 20:00:00,44.8,30.0,30.44,NE,34,0.0,0.0,56,0.00,,,0.00,Wunderground v.1.15,2013-01-18 02:00:00,
2013-01-17 20:06:00,44.7,30.0,30.44,NE,35,0.0,0.0,56,0.00,,,0.00,Wunderground v.1.15,2013-01-18 02:06:00,
2013-01-17 20:12:00,44.4,29.7,30.44,NE,35,0.0,0.0,56,0.00,,,0.00,Wunderground v.1.15,2013-01-18 02:12:00,
2013-01-17 20:20:00,44.2,29.9,30.44,NE,35,0.0,0.0,57,0.00,,,0.00,Wunderground v.1.15,2013-01-18 02:20:00,
2013-01-17 20:26:00,44.1,29.8,30.44,NE,34,0.0,0.0,57,0.00,,,0.00,Wunderground v.1.15,2013-01-18 02:26:00,
2013-01-17 20:32:00,44.3,30.0,30.44,NE,36,0.0,0.0,57,0.00,,,0.00,Wunderground v.1.15,2013-01-18 02:32:00,
2013-01-17 20:39:00,44.5,29.8,30.44,NE,56,0.0,1.0,56,0.00,,,0.00,Wunderground v.1.15,2013-01-18 02:39:00,
2013-01-17 20:44:00,44.6,29.9,30.44,ENE,71,1.0,3.0,56,0.00,,,0.00,Wunderground v.1.15,2013-01-18 02:44:00,
2013-01-17 20:50:00,44.4,29.2,30.45,ESE,109,1.0,3.0,55,0.00,,,0.00,Wunderground v.1.15,2013-01-18 02:50:00,
2013-01-17 20:56:00,44.2,29.0,30.45,ESE,110,1.0,3.0,55,0.00,,,0.00,Wunderground v.1.15,2013-01-18 02:56:00,
2013-01-17 21:02:00,44.0,29.3,30.44,ESE,110,0.0,1.0,56,0.00,,,0.00,Wunderground v.1.15,2013-01-18 03:02:00,
2013-01-17 21:09:00,43.6,29.4,30.44,ESE,110,0.0,1.0,57,0.00,,,0.00,Wunderground v.1.15,2013-01-18 03:09:00,
2013-01-17 21:14:00,43.4,29.2,30.44,ESE,110,0.0,0.0,57,0.00,,,0.00,Wunderground v.1.15,2013-01-18 03:14:00,
2013-01-17 21:20:00,43.4,29.2,30.45,ESE,110,0.0,0.0,57,0.00,,,0.00,Wunderground v.1.15,2013-01-18 03:20:00,
2013-01-17 21:26:00,43.3,29.1,30.45,ESE,110,0.0,0.0,57,0.00,,,0.00,Wunderground v.1.15,2013-01-18 03:26:00,
2013-01-17 21:32:00,43.2,29.0,30.45,ESE,110,0.0,0.0,57,0.00,,,0.00,Wunderground v.1.15,2013-01-18 03:32:00,
2013-01-17 21:39:00,42.9,29.1,30.45,ESE,110,0.0,0.0,58,0.00,,,0.00,Wunderground v.1.15,2013-01-18 03:39:00,
2013-01-17 21:44:00,42.6,28.8,30.44,ESE,110,0.0,0.0,58,0.00,,,0.00,Wunderground v.1.15,2013-01-18 03:44:00,
2013-01-17 21:50:00,42.4,29.1,30.44,ESE,110,0.0,0.0,59,0.00,,,0.00,Wunderground v.1.15,2013-01-18 03:50:00,
2013-01-17 21:56:00,42.2,28.9,30.44,ESE,110,0.0,0.0,59,0.00,,,0.00,Wunderground v.1.15,2013-01-18 03:56:00,
2013-01-17 22:02:00,42.0,29.1,30.44,ESE,110,0.0,0.0,60,0.00,,,0.00,Wunderground v.1.15,2013-01-18 04:02:00,
2013-01-17 22:09:00,41.7,28.8,30.44,ESE,110,0.0,0.0,60,0.00,,,0.00,Wunderground v.1.15,2013-01-18 04:09:00,
2013-01-17 22:14:00,41.4,28.9,30.44,ESE,110,0.0,0.0,61,0.00,,,0.00,Wunderground v.1.15,2013-01-18 04:14:00,
2013-01-17 22:20:00,41.1,28.7,30.45,ESE,110,0.0,0.0,61,0.00,,,0.00,Wunderground v.1.15,2013-01-18 04:20:00,
2013-01-17 22:26:00,40.8,28.8,30.45,ESE,110,0.0,0.0,62,0.00,,,0.00,Wunderground v.1.15,2013-01-18 04:26:00,
2013-01-17 22:32:00,40.6,29.0,30.45,ESE,110,0.0,0.0,63,0.00,,,0.00,Wunderground v.1.15,2013-01-18 04:32:00,
2013-01-17 22:38:00,40.3,29.1,30.44,ESE,110,0.0,0.0,64,0.00,,,0.00,Wunderground v.1.15,2013-01-18 04:38:00,
2013-01-17 22:44:00,40.0,28.8,30.44,ESE,110,0.0,0.0,64,0.00,,,0.00,Wunderground v.1.15,2013-01-18 04:44:00,
2013-01-17 22:50:00,39.6,28.8,30.44,ESE,110,0.0,0.0,65,0.00,,,0.00,Wunderground v.1.15,2013-01-18 04:50:00,
2013-01-17 22:56:00,39.3,28.9,30.44,ESE,110,0.0,0.0,66,0.00,,,0.00,Wunderground v.1.15,2013-01-18 04:56:00,
2013-01-17 23:01:00,39.2,29.2,30.44,ESE,110,0.0,0.0,67,0.00,,,0.00,Wunderground v.1.15,2013-01-18 05:01:00,
2013-01-17 23:02:00,39.1,29.1,30.44,ESE,110,0.0,0.0,67,0.00,,,0.00,Wunderground v.1.15,2013-01-18 05:02:00,
2013-01-17 23:06:00,39.0,29.3,30.44,ESE,110,0.0,0.0,68,0.00,,,0.00,Wunderground v.1.15,2013-01-18 05:06:00,
2013-01-17 23:09:00,39.0,29.3,30.44,ESE,110,0.0,0.0,68,0.00,,,0.00,Wunderground v.1.15,2013-01-18 05:09:00,
2013-01-17 23:14:00,38.8,29.1,30.44,ESE,110,0.0,0.0,68,0.00,,,0.00,Wunderground v.1.15,2013-01-18 05:14:00,
2013-01-17 23:20:00,38.6,29.3,30.44,ESE,110,0.0,0.0,69,0.00,,,0.00,Wunderground v.1.15,2013-01-18 05:20:00,
2013-01-17 23:26:00,38.4,29.1,30.44,ESE,110,0.0,0.0,69,0.00,,,0.00,Wunderground v.1.15,2013-01-18 05:26:00,
2013-01-17 23:32:00,38.1,28.8,30.44,ESE,110,0.0,0.0,69,0.00,,,0.00,Wunderground v.1.15,2013-01-18 05:32:00,
2013-01-17 23:39:00,37.7,28.8,30.44,ESE,110,0.0,0.0,70,0.00,,,0.00,Wunderground v.1.15,2013-01-18 05:39:00,
2013-01-17 23:46:00,37.3,29.1,30.44,ESE,110,0.0,0.0,72,0.00,,,0.00,Wunderground v.1.15,2013-01-18 05:46:00,
2013-01-17 23:52:00,37.0,29.1,30.44,ESE,110,0.0,0.0,73,0.00,,,0.00,Wunderground v.1.15,2013-01-18 05:52:00,
2013-01-17 23:59:00,37.0,29.5,30.44,ESE,110,0.0,0.0,74,0.00,,,0.00,Wunderground v.1.15,2013-01-18 05:59:00,